createdAt,value
2023-01-26T00:01:15.689Z,61.38
2023-01-26T00:03:43.018Z,61.54
2023-01-26T00:06:11.637Z,61.54
2023-01-26T00:08:38.915Z,61.59
2023-01-26T00:11:07.265Z,61.82
2023-01-26T00:13:34.767Z,61.87
2023-01-26T00:16:02.401Z,61.72
2023-01-26T00:18:29.215Z,61.91
2023-01-26T00:20:57.739Z,62.16
2023-01-26T00:23:24.900Z,61.91
2023-01-26T00:25:51.308Z,61.74
2023-01-26T00:28:17.619Z,61.58
2023-01-26T00:30:44.564Z,61.91
2023-01-26T00:33:10.988Z,61.96
2023-01-26T00:35:37.369Z,62.07
2023-01-26T00:38:04.645Z,62.02
2023-01-26T00:40:31.144Z,62.12
2023-01-26T00:42:59.137Z,62.33
2023-01-26T00:45:25.484Z,61.97
2023-01-26T00:47:51.825Z,62.37
2023-01-26T00:50:18.222Z,62.21
2023-01-26T00:52:44.708Z,62.06
2023-01-26T00:55:11.101Z,62.21
2023-01-26T00:57:37.519Z,62.11
2023-01-26T01:00:06.345Z,62.34
2023-01-26T01:02:32.700Z,62.11
2023-01-26T01:04:59.077Z,62.05
2023-01-26T01:07:25.459Z,62.28
2023-01-26T01:09:51.789Z,62.25
2023-01-26T01:12:18.147Z,62.29
2023-01-26T01:14:44.661Z,62.27
2023-01-26T01:17:11.015Z,62.35
2023-01-26T01:19:37.989Z,62.22
2023-01-26T01:22:04.339Z,62.37
2023-01-26T01:24:30.887Z,62.41
2023-01-26T01:26:57.226Z,62.53
2023-01-26T01:29:23.545Z,62.46
2023-01-26T01:31:49.980Z,62.46
2023-01-26T01:34:16.323Z,62.41
2023-01-26T01:36:42.680Z,62.24
2023-01-26T01:39:09.109Z,61.99
2023-01-26T01:41:35.512Z,62.16
2023-01-26T01:44:20.497Z,62.29
2023-01-26T01:47:18.199Z,62.17
2023-01-26T01:49:51.191Z,62.07
2023-01-26T01:52:29.777Z,61.76
2023-01-26T01:55:07.300Z,62.09
2023-01-26T01:57:51.548Z,62.01
2023-01-26T02:00:21.177Z,62.19
2023-01-26T02:03:11.647Z,62.23
2023-01-26T02:06:14.195Z,62.24
2023-01-26T02:08:45.129Z,62.08
2023-01-26T02:11:25.875Z,62.39
2023-01-26T02:13:52.647Z,62.42
2023-01-26T02:16:19.706Z,62.26
2023-01-26T02:18:46.801Z,62.69
2023-01-26T02:21:17.603Z,62.47
2023-01-26T02:24:01.458Z,62.50
2023-01-26T02:26:31.322Z,62.67
2023-01-26T02:28:58.890Z,62.84
2023-01-26T02:31:26.681Z,62.81
2023-01-26T02:33:53.115Z,62.90
2023-01-26T02:36:21.567Z,62.74
2023-01-26T02:38:55.664Z,62.72
2023-01-26T02:41:40.692Z,62.72
2023-01-26T02:44:09.951Z,62.85
2023-01-26T02:46:36.463Z,62.60
2023-01-26T02:49:21.350Z,62.49
2023-01-26T02:51:47.900Z,63.04
2023-01-26T02:54:34.181Z,62.87
2023-01-26T02:57:00.827Z,63.03
2023-01-26T02:59:27.523Z,63.19
2023-01-26T03:01:56.081Z,63.08
2023-01-26T03:04:22.458Z,62.91
2023-01-26T03:06:48.979Z,62.97
2023-01-26T03:09:15.305Z,63.15
2023-01-26T03:11:44.281Z,63.06
2023-01-26T03:14:15.234Z,62.94
2023-01-26T03:16:42.397Z,63.15
2023-01-26T03:19:30.052Z,63.33
2023-01-26T03:22:14.880Z,63.14
2023-01-26T03:24:59.575Z,63.17
2023-01-26T03:27:28.570Z,63.00
2023-01-26T03:29:57.233Z,63.23
2023-01-26T03:32:24.549Z,62.89
2023-01-26T03:34:51.136Z,63.23
2023-01-26T03:37:22.483Z,63.19
2023-01-26T03:40:09.400Z,63.45
2023-01-26T03:42:55.153Z,63.34
2023-01-26T03:45:41.112Z,63.12
2023-01-26T03:48:28.523Z,63.01
2023-01-26T03:51:13.255Z,63.22
2023-01-26T03:53:58.066Z,62.96
2023-01-26T03:56:24.836Z,63.08
2023-01-26T03:58:54.046Z,62.99
2023-01-26T04:01:28.751Z,63.15
2023-01-26T04:04:15.874Z,63.17
2023-01-26T04:07:02.691Z,63.30
2023-01-26T04:09:29.698Z,63.30
2023-01-26T04:11:56.498Z,63.26
2023-01-26T04:14:50.144Z,63.12
2023-01-26T04:17:37.210Z,63.67
2023-01-26T04:20:24.389Z,63.11
2023-01-26T04:22:50.817Z,62.96
2023-01-26T04:25:19.267Z,63.40
2023-01-26T04:27:46.093Z,63.08
2023-01-26T04:30:14.697Z,63.24
2023-01-26T04:32:41.581Z,63.20
2023-01-26T04:35:09.410Z,63.20
2023-01-26T04:37:36.157Z,63.08
2023-01-26T04:40:04.113Z,63.39
2023-01-26T04:42:30.510Z,63.47
2023-01-26T04:44:56.837Z,63.48
2023-01-26T04:47:23.217Z,63.52
2023-01-26T04:49:49.624Z,63.35
2023-01-26T04:52:16.122Z,63.66
2023-01-26T04:54:42.511Z,63.68
2023-01-26T04:57:09.871Z,63.84
2023-01-26T04:59:36.796Z,63.59
2023-01-26T05:02:03.143Z,63.74
2023-01-26T05:04:29.624Z,63.42
2023-01-26T05:06:56.016Z,63.62
2023-01-26T05:09:22.324Z,63.47
2023-01-26T05:11:48.704Z,63.49
2023-01-26T05:14:15.890Z,63.38
2023-01-26T05:16:42.300Z,63.20
2023-01-26T05:19:08.745Z,63.25
2023-01-26T05:21:35.064Z,63.33
2023-01-26T05:24:01.539Z,63.38
2023-01-26T05:26:28.038Z,63.54
2023-01-26T05:28:54.359Z,63.36
2023-01-26T05:31:20.823Z,63.44
2023-01-26T05:33:47.200Z,63.31
2023-01-26T05:36:13.561Z,63.36
2023-01-26T05:38:39.956Z,63.80
2023-01-26T05:41:07.435Z,63.76
2023-01-26T05:43:33.805Z,63.52
2023-01-26T05:46:00.186Z,63.92
2023-01-26T05:48:26.513Z,63.68
2023-01-26T05:50:55.865Z,63.94
2023-01-26T05:53:22.252Z,64.21
2023-01-26T05:55:48.717Z,64.12
2023-01-26T05:58:15.035Z,64.01
2023-01-26T06:00:41.555Z,63.87
2023-01-26T06:03:07.915Z,64.07
2023-01-26T06:05:34.262Z,64.06
2023-01-26T06:08:00.572Z,64.49
2023-01-26T06:10:27.131Z,64.45
2023-01-26T06:12:53.441Z,63.79
2023-01-26T06:15:19.807Z,63.63
2023-01-26T06:17:46.179Z,63.52
2023-01-26T06:20:18.710Z,63.33
2023-01-26T06:22:45.048Z,63.65
2023-01-26T06:25:11.405Z,63.91
2023-01-26T06:27:41.997Z,63.68
2023-01-26T06:30:09.891Z,63.52
2023-01-26T06:32:37.241Z,63.99
2023-01-26T06:35:08.388Z,63.88
2023-01-26T06:37:34.855Z,63.98
2023-01-26T06:40:02.176Z,63.96
2023-01-26T06:42:28.538Z,63.86
2023-01-26T06:44:55.129Z,63.88
2023-01-26T06:47:35.911Z,63.82
2023-01-26T06:50:02.394Z,63.86
2023-01-26T06:52:35.606Z,63.87
2023-01-26T06:55:03.832Z,63.60
2023-01-26T06:57:30.199Z,63.54
2023-01-26T06:59:57.494Z,63.49
2023-01-26T07:02:24.293Z,63.47
2023-01-26T07:04:51.112Z,63.76
2023-01-26T07:07:17.469Z,63.83
2023-01-26T07:09:44.423Z,63.98
2023-01-26T07:12:10.756Z,64.05
2023-01-26T07:14:37.149Z,64.08
2023-01-26T07:17:03.692Z,64.01
2023-01-26T07:19:31.386Z,64.01
2023-01-26T07:21:57.794Z,64.01
2023-01-26T07:24:25.538Z,63.86
2023-01-26T07:26:52.351Z,63.99
2023-01-26T07:29:19.319Z,63.73
2023-01-26T07:31:45.876Z,64.04
2023-01-26T07:34:18.218Z,64.08
2023-01-26T07:36:45.449Z,64.10
2023-01-26T07:39:12.063Z,64.25
2023-01-26T07:41:38.454Z,64.03
2023-01-26T07:44:08.854Z,64.25
2023-01-26T07:46:35.228Z,64.19
2023-01-26T07:49:01.620Z,64.19
2023-01-26T07:51:27.949Z,64.28
2023-01-26T07:53:54.386Z,64.26
2023-01-26T07:56:20.813Z,64.38
2023-01-26T07:58:54.441Z,64.21
2023-01-26T08:01:21.701Z,64.45
2023-01-26T08:03:51.127Z,64.33
2023-01-26T08:06:18.458Z,64.29
2023-01-26T08:08:50.857Z,64.37
2023-01-26T08:11:19.282Z,64.52
2023-01-26T08:13:45.621Z,64.48
2023-01-26T08:16:12.761Z,64.53
2023-01-26T08:18:44.207Z,64.44
2023-01-26T08:21:12.674Z,64.50
2023-01-26T08:23:39.084Z,64.49
2023-01-26T08:26:08.804Z,64.33
2023-01-26T08:28:36.691Z,64.33
2023-01-26T08:31:12.015Z,64.34
2023-01-26T08:33:40.103Z,64.42
2023-01-26T08:36:08.917Z,64.02
2023-01-26T08:38:35.321Z,64.70
2023-01-26T08:41:02.744Z,64.67
2023-01-26T08:43:29.640Z,64.59
2023-01-26T08:45:56.427Z,64.71
2023-01-26T08:48:22.842Z,64.79
2023-01-26T08:50:53.984Z,64.42
2023-01-26T08:53:20.289Z,64.68
2023-01-26T08:55:46.616Z,64.71
2023-01-26T08:58:12.950Z,64.91
2023-01-26T09:00:39.343Z,64.74
2023-01-26T09:03:06.362Z,64.70
2023-01-26T09:05:35.483Z,64.40
2023-01-26T09:08:02.744Z,64.46
2023-01-26T09:10:29.195Z,64.46
2023-01-26T09:12:57.988Z,64.43
2023-01-26T09:15:24.799Z,64.29
2023-01-26T09:17:51.906Z,64.35
2023-01-26T09:20:19.043Z,64.04
2023-01-26T09:22:46.075Z,64.31
2023-01-26T09:25:12.789Z,64.34
2023-01-26T09:27:39.865Z,64.56
2023-01-26T09:30:08.289Z,64.54
2023-01-26T09:32:34.648Z,64.45
2023-01-26T09:35:00.978Z,64.44
2023-01-26T09:37:27.311Z,64.40
2023-01-26T09:39:53.705Z,64.34
2023-01-26T09:42:35.273Z,64.49
2023-01-26T09:45:14.157Z,64.19
2023-01-26T09:48:09.473Z,64.41
2023-01-26T09:51:00.621Z,64.35
2023-01-26T09:53:34.955Z,64.28
2023-01-26T09:56:01.323Z,64.59
2023-01-26T09:58:40.291Z,64.60
2023-01-26T10:01:18.688Z,64.51
2023-01-26T10:03:53.742Z,64.45
2023-01-26T10:06:28.153Z,64.47
2023-01-26T10:09:01.286Z,64.64
2023-01-26T10:11:35.144Z,64.64
2023-01-26T10:14:15.968Z,64.18
2023-01-26T10:16:45.301Z,64.78
2023-01-26T10:19:33.654Z,64.49
2023-01-26T10:22:07.521Z,64.74
2023-01-26T10:24:34.827Z,64.37
2023-01-26T10:27:01.250Z,64.54
2023-01-26T10:29:27.647Z,64.28
2023-01-26T10:31:55.109Z,64.69
2023-01-26T10:34:27.093Z,64.38
2023-01-26T10:37:01.811Z,64.67
2023-01-26T10:39:28.149Z,64.55
2023-01-26T10:42:00.367Z,64.68
2023-01-26T10:44:34.464Z,64.42
2023-01-26T10:47:17.229Z,64.60
2023-01-26T10:49:44.085Z,64.44
2023-01-26T10:52:24.761Z,64.72
2023-01-26T10:55:11.939Z,64.64
2023-01-26T10:57:41.249Z,64.80
2023-01-26T11:00:24.399Z,64.90
2023-01-26T11:02:54.231Z,64.51
2023-01-26T11:05:25.325Z,64.64
2023-01-26T11:08:00.302Z,64.76
2023-01-26T11:10:36.136Z,64.46
2023-01-26T11:13:17.495Z,64.54
2023-01-26T11:16:24.903Z,64.93
2023-01-26T11:19:13.185Z,64.86
2023-01-26T11:21:50.993Z,64.51
2023-01-26T11:24:33.793Z,64.62
2023-01-26T11:27:25.988Z,64.46
2023-01-26T11:30:23.458Z,64.40
2023-01-26T11:33:08.044Z,64.66
2023-01-26T11:36:02.800Z,64.55
2023-01-26T11:38:35.243Z,64.40
2023-01-26T11:41:20.312Z,64.49
2023-01-26T11:44:03.084Z,64.68
2023-01-26T11:47:06.883Z,64.64
2023-01-26T11:49:56.442Z,64.98
2023-01-26T11:52:48.646Z,65.07
2023-01-26T11:55:42.816Z,64.95
2023-01-26T11:58:24.391Z,64.92
2023-01-26T12:00:54.953Z,64.72
2023-01-26T12:03:46.201Z,64.84
2023-01-26T12:06:19.914Z,64.99
2023-01-26T12:09:04.632Z,65.05
2023-01-26T12:11:35.480Z,64.58
2023-01-26T12:14:15.959Z,64.75
2023-01-26T12:17:33.256Z,64.33
2023-01-26T12:20:38.396Z,64.65
2023-01-26T12:23:08.819Z,64.63
2023-01-26T12:25:38.085Z,64.52
2023-01-26T12:28:19.753Z,64.74
2023-01-26T12:31:18.299Z,64.77
2023-01-26T12:33:46.186Z,64.27
2023-01-26T12:36:21.472Z,64.09
2023-01-26T12:38:59.140Z,63.90
2023-01-26T12:41:38.224Z,64.03
2023-01-26T12:44:26.423Z,64.25
2023-01-26T12:47:08.010Z,64.08
2023-01-26T12:49:53.798Z,64.07
2023-01-26T12:52:32.755Z,63.77
2023-01-26T12:55:15.560Z,63.95
2023-01-26T12:57:48.471Z,63.78
2023-01-26T13:00:19.957Z,63.88
2023-01-26T13:02:51.245Z,64.05
2023-01-26T13:05:33.590Z,63.82
2023-01-26T13:08:31.105Z,64.08
2023-01-26T13:11:01.760Z,64.44
2023-01-26T13:13:37.981Z,64.15
2023-01-26T13:16:16.674Z,64.32
2023-01-26T13:18:53.433Z,64.78
2023-01-26T13:21:38.001Z,64.67
2023-01-26T13:24:24.349Z,64.86
2023-01-26T13:26:53.600Z,65.07
2023-01-26T13:29:27.207Z,65.34
2023-01-26T13:31:58.151Z,64.65
2023-01-26T13:34:29.466Z,65.13
2023-01-26T13:37:04.318Z,64.73
2023-01-26T13:39:41.268Z,64.74
2023-01-26T13:42:41.451Z,64.87
2023-01-26T13:45:16.822Z,65.02
2023-01-26T13:47:49.040Z,65.18
2023-01-26T13:50:30.502Z,64.57
2023-01-26T13:52:57.096Z,64.78
2023-01-26T13:55:26.793Z,64.86
2023-01-26T13:58:13.343Z,64.58
2023-01-26T14:00:39.870Z,64.87
2023-01-26T14:03:18.542Z,65.16
2023-01-26T14:05:52.692Z,64.70
2023-01-26T14:08:22.067Z,65.04
2023-01-26T14:10:48.892Z,64.83
2023-01-26T14:13:29.023Z,64.56
2023-01-26T14:15:59.625Z,65.04
2023-01-26T14:18:26.577Z,64.65
2023-01-26T14:20:59.430Z,64.90
2023-01-26T14:23:33.169Z,64.90
2023-01-26T14:26:13.600Z,64.72
2023-01-26T14:28:42.847Z,64.62
2023-01-26T14:31:20.266Z,64.46
2023-01-26T14:33:48.584Z,64.96
2023-01-26T14:36:19.729Z,64.71
2023-01-26T14:38:48.992Z,64.48
2023-01-26T14:41:31.699Z,64.41
2023-01-26T14:44:05.014Z,64.92
2023-01-26T14:46:50.084Z,64.37
2023-01-26T14:49:27.200Z,64.61
2023-01-26T14:51:58.447Z,64.27
2023-01-26T14:54:33.146Z,64.40
2023-01-26T14:57:00.835Z,64.11
2023-01-26T14:59:39.801Z,63.95
2023-01-26T15:02:20.520Z,64.14
2023-01-26T15:05:12.553Z,63.77
2023-01-26T15:07:45.379Z,64.21
2023-01-26T15:10:30.675Z,63.93
2023-01-26T15:13:08.117Z,63.99
2023-01-26T15:15:40.935Z,63.95
2023-01-26T15:18:13.313Z,64.42
2023-01-26T15:20:49.117Z,64.47
2023-01-26T15:23:21.011Z,64.46
2023-01-26T15:25:47.779Z,64.47
2023-01-26T15:28:19.913Z,64.34
2023-01-26T15:30:49.490Z,64.14
2023-01-26T15:34:03.938Z,64.26
2023-01-26T15:36:50.513Z,64.07
2023-01-26T15:39:19.107Z,64.09
2023-01-26T15:42:06.955Z,64.70
2023-01-26T15:44:33.351Z,64.53
2023-01-26T15:46:59.672Z,64.39
2023-01-26T15:49:26.055Z,64.34
2023-01-26T15:51:54.090Z,64.51
2023-01-26T15:54:20.739Z,64.79
2023-01-26T15:56:47.071Z,64.66
2023-01-26T15:59:13.420Z,64.93
2023-01-26T16:01:39.886Z,64.98
2023-01-26T16:04:06.271Z,64.82
2023-01-26T16:06:33.578Z,64.68
2023-01-26T16:08:59.964Z,64.97
2023-01-26T16:11:31.359Z,64.64
2023-01-26T16:14:03.669Z,64.87
2023-01-26T16:16:31.962Z,64.64
2023-01-26T16:18:58.434Z,64.83
2023-01-26T16:21:29.522Z,64.80
2023-01-26T16:23:56.070Z,64.94
2023-01-26T16:26:22.608Z,64.76
2023-01-26T16:28:48.962Z,64.85
2023-01-26T16:31:24.547Z,64.78
2023-01-26T16:33:51.453Z,64.87
2023-01-26T16:36:19.394Z,65.01
2023-01-26T16:38:46.664Z,65.26
2023-01-26T16:41:14.528Z,64.72
2023-01-26T16:43:42.628Z,64.84
2023-01-26T16:46:09.521Z,65.18
2023-01-26T16:48:36.648Z,64.69
2023-01-26T16:51:14.456Z,65.12
2023-01-26T16:53:40.802Z,64.91
2023-01-26T16:56:10.953Z,64.73
2023-01-26T16:58:37.542Z,64.61
2023-01-26T17:01:04.195Z,65.00
2023-01-26T17:03:30.599Z,64.79
2023-01-26T17:05:57.165Z,65.04
2023-01-26T17:08:23.542Z,65.18
2023-01-26T17:11:01.692Z,64.97
2023-01-26T17:13:29.175Z,65.19
2023-01-26T17:15:56.554Z,65.07
2023-01-26T17:18:22.905Z,64.85
2023-01-26T17:20:49.331Z,65.22
2023-01-26T17:23:15.668Z,65.15
2023-01-26T17:25:42.072Z,65.44
2023-01-26T17:28:08.499Z,65.61
2023-01-26T17:30:34.965Z,65.36
2023-01-26T17:33:01.894Z,65.27
2023-01-26T17:35:28.247Z,65.11
2023-01-26T17:37:54.575Z,65.78
2023-01-26T17:40:20.911Z,65.80
2023-01-26T17:42:47.305Z,65.85
2023-01-26T17:45:13.878Z,65.66
2023-01-26T17:47:40.397Z,65.91
2023-01-26T17:50:07.576Z,66.21
2023-01-26T17:52:36.301Z,66.01
2023-01-26T17:55:05.919Z,66.29
2023-01-26T17:57:32.566Z,66.17
2023-01-26T17:59:58.948Z,66.18
2023-01-26T18:02:25.446Z,66.41
2023-01-26T18:04:51.863Z,66.85
2023-01-26T18:07:18.268Z,66.52
2023-01-26T18:09:44.666Z,66.71
2023-01-26T18:12:11.178Z,66.43
2023-01-26T18:14:37.512Z,66.25
2023-01-26T18:17:03.855Z,66.51
2023-01-26T18:19:33.807Z,66.03
2023-01-26T18:22:00.237Z,66.08
2023-01-26T18:24:30.444Z,66.42
2023-01-26T18:26:56.956Z,66.64
2023-01-26T18:29:26.440Z,66.43
2023-01-26T18:31:53.312Z,66.72
2023-01-26T18:34:19.987Z,67.03
2023-01-26T18:36:46.360Z,67.03
2023-01-26T18:39:16.847Z,67.43
2023-01-26T18:41:44.062Z,67.02
2023-01-26T18:44:10.687Z,67.23
2023-01-26T18:46:37.527Z,67.33
2023-01-26T18:49:06.802Z,66.93
2023-01-26T18:51:35.610Z,66.83
2023-01-26T18:54:04.008Z,66.62
2023-01-26T18:56:31.266Z,66.42
2023-01-26T18:58:57.965Z,66.27
2023-01-26T19:01:24.452Z,66.25
2023-01-26T19:03:55.344Z,66.32
2023-01-26T19:06:23.952Z,66.12
2023-01-26T19:08:58.309Z,66.08
2023-01-26T19:11:30.851Z,65.60
2023-01-26T19:13:58.366Z,65.84
2023-01-26T19:16:24.844Z,65.39
2023-01-26T19:18:51.979Z,65.61
2023-01-26T19:21:21.672Z,65.04
2023-01-26T19:23:48.921Z,65.34
2023-01-26T19:26:18.182Z,64.97
2023-01-26T19:28:45.501Z,64.20
2023-01-26T19:31:12.468Z,64.32
2023-01-26T19:33:39.199Z,64.43
2023-01-26T19:36:07.346Z,64.04
2023-01-26T19:38:36.824Z,63.87
2023-01-26T19:41:03.365Z,63.79
2023-01-26T19:43:29.699Z,63.67
2023-01-26T19:45:57.009Z,63.70
2023-01-26T19:48:26.654Z,64.13
2023-01-26T19:51:08.154Z,63.91
2023-01-26T19:53:37.235Z,63.56
2023-01-26T19:56:17.201Z,64.18
2023-01-26T19:58:49.015Z,63.66
2023-01-26T20:01:15.413Z,63.55
2023-01-26T20:03:41.863Z,63.82
2023-01-26T20:06:15.809Z,63.76
2023-01-26T20:08:43.138Z,63.61
2023-01-26T20:11:10.409Z,63.83
2023-01-26T20:13:37.318Z,63.71
2023-01-26T20:16:06.618Z,63.77
2023-01-26T20:18:33.327Z,63.98
2023-01-26T20:21:01.058Z,63.59
2023-01-26T20:23:27.882Z,63.90
2023-01-26T20:26:04.488Z,63.71
2023-01-26T20:28:31.291Z,63.68
2023-01-26T20:31:15.617Z,63.69
2023-01-26T20:33:43.763Z,63.97
2023-01-26T20:36:13.493Z,64.20
2023-01-26T20:38:40.165Z,63.89
2023-01-26T20:41:12.034Z,63.89
2023-01-26T20:43:41.457Z,63.98
2023-01-26T20:46:10.251Z,63.76
2023-01-26T20:48:36.649Z,63.98
2023-01-26T20:51:10.735Z,63.90
2023-01-26T20:53:37.167Z,63.73
2023-01-26T20:56:03.551Z,63.90
2023-01-26T20:58:30.465Z,63.62
2023-01-26T21:01:04.334Z,63.68
2023-01-26T21:03:30.705Z,64.12
2023-01-26T21:05:57.031Z,63.88
2023-01-26T21:08:23.547Z,63.96
2023-01-26T21:10:49.889Z,63.92
2023-01-26T21:13:16.229Z,63.74
2023-01-26T21:15:42.641Z,63.72
2023-01-26T21:18:09.119Z,63.99
2023-01-26T21:20:35.540Z,63.16
2023-01-26T21:23:01.868Z,63.54
2023-01-26T21:25:28.269Z,63.46
2023-01-26T21:27:54.709Z,63.37
2023-01-26T21:30:21.677Z,63.48
2023-01-26T21:32:48.307Z,63.59
2023-01-26T21:35:15.992Z,63.55
2023-01-26T21:37:42.419Z,63.62
2023-01-26T21:40:10.540Z,63.45
2023-01-26T21:42:37.108Z,63.44
2023-01-26T21:45:22.393Z,63.83
2023-01-26T21:48:11.460Z,63.95
2023-01-26T21:50:56.228Z,63.25
2023-01-26T21:53:22.752Z,63.13
2023-01-26T21:55:49.196Z,63.06
2023-01-26T21:58:33.948Z,62.87
2023-01-26T22:01:09.817Z,63.40
2023-01-26T22:03:36.798Z,63.12
2023-01-26T22:06:04.225Z,63.48
2023-01-26T22:08:30.984Z,63.27
2023-01-26T22:10:57.413Z,63.22
2023-01-26T22:13:24.551Z,63.28
2023-01-26T22:15:51.191Z,63.58
2023-01-26T22:18:17.839Z,63.52
2023-01-26T22:20:44.653Z,63.48
2023-01-26T22:23:11.498Z,63.25
2023-01-26T22:25:39.529Z,63.62
2023-01-26T22:28:06.637Z,63.44
2023-01-26T22:30:33.932Z,63.06
2023-01-26T22:33:00.711Z,63.47
2023-01-26T22:35:31.776Z,63.43
2023-01-26T22:37:59.036Z,63.70
2023-01-26T22:40:25.859Z,63.69
2023-01-26T22:42:53.040Z,63.37
2023-01-26T22:45:19.971Z,63.43
2023-01-26T22:47:49.750Z,63.44
2023-01-26T22:50:16.735Z,63.20
2023-01-26T22:52:43.267Z,63.28
2023-01-26T22:55:10.105Z,63.38
2023-01-26T22:57:36.521Z,63.44
2023-01-26T23:00:04.496Z,62.83
2023-01-26T23:02:30.859Z,63.15
2023-01-26T23:04:57.307Z,63.58
2023-01-26T23:07:24.439Z,63.55
2023-01-26T23:09:50.850Z,63.44
2023-01-26T23:12:17.393Z,63.27
2023-01-26T23:14:43.817Z,63.61
2023-01-26T23:17:11.397Z,63.72
2023-01-26T23:19:37.916Z,63.59
2023-01-26T23:22:04.665Z,63.22
2023-01-26T23:24:31.076Z,63.59
2023-01-26T23:26:57.463Z,63.11
2023-01-26T23:29:23.987Z,63.60
2023-01-26T23:31:50.467Z,63.81
2023-01-26T23:34:16.899Z,63.67
2023-01-26T23:36:43.298Z,63.91
2023-01-26T23:39:09.714Z,63.72
2023-01-26T23:41:36.068Z,63.90
2023-01-26T23:44:02.381Z,63.63
2023-01-26T23:46:28.823Z,63.56
2023-01-26T23:48:55.227Z,63.54
2023-01-26T23:51:21.588Z,63.77
2023-01-26T23:53:47.992Z,64.08
2023-01-26T23:56:16.478Z,64.12
2023-01-26T23:58:43.030Z,63.76
